UK Observations

KGNC 200635Z AUTO 19007KT 10SM CLR 12/03 A3014 RMK AO2 T01200031 EGXW 200634Z 33004KT 2000 BR BKN250 06/06 Q1032 YLO2 EGAA 200620Z 00000KT 7000 NSC 07/05 Q1031 EGAC 200620Z AUTO 19004KT 6000 NCD 10/07 Q1031 EGBB 200620Z 36003KT 6000 NSC 08/06 Q1032 EGCC 200620Z AUTO VRB01KT 9999 NCD 08/05 Q1032 NOSIG EGFF 200620Z AUTO 08005KT 050V120 9999 NCD 11/07 Q1031 EGGD 200620Z AUTO 07010KT 9999 NCD 10/06 Q1031 EGGP 200620Z 12005KT CAVOK 10/07 Q1032 EGGW 200620Z AUTO 01006KT 320V040 8000 NCD 09/07 Q1031 EGHE 200620Z 02008KT 8000 NSC 12/09 Q1030 EGHH 200620Z VRB01KT CAVOK 08/07 Q1030 EGHI 200620Z 01004KT CAVOK 10/06 Q1030 EGJA 200620Z 03009KT CAVOK 12/07 Q1029 EGJB 200620Z 04007KT CAVOK 12/07 Q1029 EGJJ 200620Z 04011KT CAVOK 12/08 Q1028 EGKK 200620Z 33005KT CAVOK 11/07 Q1030 EGLC 200620Z AUTO VRB02KT 9000 NCD 10/06 Q1031 EGLF 200620Z AUTO 00000KT 6000 NCD 07/06 Q1031 EGLL 200620Z AUTO VRB03KT 8000 NCD 10/06 Q1031 NOSIG EGMC 200620Z 35004KT 8000 NSC 09/06 Q1030 EGMD 200620Z AUTO 01006KT 9999 NCD 11/09 Q1029 EGNH 200620Z 09008KT 9999 FEW040 10/05 Q1032 EGNJ 200620Z VRB01KT 0100 R20/0150 FG BKN001 05/05 Q1033 EGNM 200620Z 27002KT CAVOK 09/04 Q1032 EGNS 200620Z VRB03KT 8000 NSC 10/07 Q1031 NOSIG EGNT 200620Z VRB01KT 8000 NSC 07/07 Q1032 EGNV 200620Z 20003KT 9000 NSC 05/04 Q1032 EGNX 200620Z 29001KT 4500 HZ NSC 07/06 Q1032 EGPA 200620Z 28012KT 9999 FEW012 SCT035 BKN040 11/09 Q1028 EGPB 200620Z 26006KT 8000 FEW008 09/08 Q1027 TEMPO 3000 BR BKN008 EGPC 200620Z AUTO VRB01KT 9999 NCD 09/07 Q1028 EGPD 200620Z AUTO VRB03KT 9999 NCD 11/07 Q1029 NOSIG EGPE 200620Z VRB03KT CAVOK 12/08 Q1029 EGPF 200620Z AUTO 24003KT 9000 NCD 07/06 Q1031 EGPH 200620Z 28002KT CAVOK 07/07 Q1031 EGPK 200620Z 00000KT CAVOK 09/07 Q1031 EGPL 200620Z 20010KT 9999 FEW003 BKN012 10/10 Q1029 EGPM 200620Z AUTO 23015KT 5000 HZ OVC005/// 10/09 Q1026 EGPO 200620Z 19010KT 9999 FEW008 BKN011 10/09 Q1028 EGSH 200620Z 01004KT 5000 HZ NSC 09/08 Q1031 NOSIG EGSS 200620Z AUTO 34006KT 3200 BR NCD 06/06 Q1031 EGTE 200620Z 01003KT CAVOK 06/06 Q1031 EGUL 200611Z AUTO 24003KT 0200 R06/0300V0350 FG BKN000 03/03 A3045 RMK AO2 BKN V SCT SLP315 $ EGUN 200606Z AUTO 28004KT 0200 R11/0300V0350 FG VV000 05/05 A3045 RMK AO2 SLP315 $ EGUN 200616Z AUTO 26003KT M0200 R11/0250V0300 FG VV000 05/05 A3045 RMK AO2 SLP315 $ KGNC 200615Z AUTO 20006KT 10SM CLR 13/03 A3014 RMK AO2 T01250032 EGCN 200620Z 31002KT 4500 BR NSC 06/06 Q1033 EGHQ 200620Z 07004KT CAVOK 14/07 Q1031 EGPI 200620Z AUTO VRB03KT 5000 BKN002/// BKN010/// 10/10 Q1031 EGTK 200620Z 02003KT 6000 NSC 07/05 Q1032 EGAA 200550Z 16003KT 8000 NSC 07/05 Q1031 EGAC 200550Z AUTO 19002KT 6000 NCD 08/06 Q1031 EGBB 200550Z 33003KT 6000 NSC 08/05 Q1032 EGCC 200550Z AUTO 15003KT 9999 NCD 07/04 Q1032 NOSIG EGDM 200550Z AUTO 33007KT 8000 HZ NCD 08/06 Q1031 EGDR 200550Z AUTO 05011KT 9999 // NCD 10/06 Q1030 EGDY 200550Z AUTO 22001KT 8000 BR NCD 05/05 Q1031 EGFF 200550Z AUTO VRB03KT 9999 NCD 11/07 Q1031 EGGD 200550Z AUTO 07009KT 9999 NCD 09/06 Q1031 EGGP 200550Z 12004KT CAVOK 10/06 Q1032 EGGW 200550Z AUTO 01007KT 340V070 6000 NCD 08/07 Q1031 EGHH 200550Z 31004KT CAVOK 05/04 Q1030 EGHI 200550Z 02004KT CAVOK 08/05 Q1030 EGJA 200550Z 04010KT CAVOK 12/07 Q1029 EGJB 200550Z 05009KT CAVOK 12/06 Q1029 EGJJ 200550Z 04010KT CAVOK 11/08 Q1028 EGKK 200550Z 34004KT 310V130 CAVOK 11/06 Q1030 EGLC 200550Z AUTO 28003KT 8000 NCD 10/06 Q1031 EGLL 200550Z AUTO VRB02KT 7000 NCD 09/06 Q1031 NOSIG EGMC 200550Z 35006KT 8000 NSC 08/05 Q1030 EGMD 200550Z AUTO 34010KT 7000 NCD 10/08 Q1029 EGNH 200550Z 09008KT 9999 FEW038 09/04 Q1032 EGNJ 200550Z 00000KT 0050 R20/0125 FG BKN001 04/04 Q1033 EGNM 200550Z VRB02KT CAVOK 08/03 Q1032 EGNS 200550Z VRB03KT 8000 NSC 08/06 Q1031 NOSIG EGNT 200550Z 19002KT 8000 NSC 06/06 Q1032 EGNV 200550Z 24003KT 9000 MIFG NSC 03/03 Q1032 EGNX 200550Z VRB01KT 4500 BR NSC 06/05 Q1032 EGOS 200550Z AUTO 30001KT 6000 HZ NCD 05/04 Q1032 EGOV 200550Z AUTO 27003KT 9999 FEW120/// 11/07 Q1031 EGPA 200550Z 27012KT 9999 FEW012 SCT035 BKN042 11/09 Q1028 EGPB 200550Z 25007KT 9000 NSC 09/08 Q1027 TEMPO 3000 BR BKN002 EGPC 200550Z AUTO 36007KT 9999 NCD 09/07 Q1028 EGPD 200550Z AUTO VRB02KT 9999 NCD 11/06 Q1029 NOSIG EGPE 200550Z 23006KT CAVOK 11/07 Q1029 EGPF 200550Z AUTO 26003KT 7000 NCD 06/05 Q1031 EGPH 200550Z 33002KT CAVOK 05/05 Q1030 EGPK 200550Z 00000KT CAVOK 09/06 Q1031 EGPL 200550Z AUTO 20011KT 9999 SCT003/// BKN009/// OVC015/// 10/09 Q1029 EGPM 200550Z AUTO 23014KT 6000 FEW010/// 10/08 Q1026 EGPO 200550Z 19010KT 9999 FEW007 BKN010 10/09 Q1028 EGPU 200550Z AUTO 19006KT 1300 BR BKN002/// 10/09 Q1030 EGQK 200550Z AUTO 24004KT 9999 NCD 11/07 Q1028 EGQL 200550Z 36003KT CAVOK 07/07 Q1030 BLU EGQM 200550Z AUTO 20003KT 9999 FEW100/// 07/05 Q1031 EGQS 200550Z 23003KT CAVOK 10/06 Q1028 BLU EGSH 200550Z 01003KT 5000 HZ NSC 08/07 Q1031 NOSIG EGSS 200550Z AUTO 35006KT 2700 BR NCD 06/05 Q1031 EGTE 200550Z 04003KT CAVOK 06/05 Q1031 EGUB 200550Z AUTO 34002KT 2100 // NCD 04/04 Q1031 EGUL 200556Z AUTO 24003KT 0200 R06/0350V0600 FG SCT000 03/03 A3045 RMK AO2 SLP315 T00320025 10077 20025 55000 $ EGUN 200556Z AUTO 00000KT M0200 R11/0300 FG VV000 05/05 A3045 RMK AO2 SLP315 T00450045 10079 20034 53001 $ EGUN 200556Z AUTO 00000KT M0200 R11/0300 FG VV000 05/05 A3045 RMK AO2 SLP315 T00450045 10079 20034 53001 . EGVA 200556Z AUTO 00000KT 9999 CLR 06/06 A3046 RMK AO2 SLP318 T00640057 10113 20060 53003 VISNO RWY27 $ EGVN 200550Z 36002KT CAVOK 06/05 Q1031 TEMPO 7000 HZ EGVN 200550Z 36002KT CAVOK 06/05 Q1031 BLU TEMPO 7000 HZ WHT EGWU 200550Z 03004KT 8000 HZ SCT300 09/06 Q1031 NOSIG EGWU 200550Z 03004KT 8000 HZ SCT300 09/06 Q1031 BLU NOSIG EGXC 200550Z 33003KT 5000 BR FEW300 05/04 Q1032 WHT EGXT 200550Z AUTO 32004KT 6000 HZ NCD 06/05 Q1031 EGYD 200550Z AUTO 32004KT 4800 // NCD 07/05 Q1032 GBYD 200600Z 25005KT CAVOK 18/17 Q1010 KGNC 200555Z AUTO 19007KT 10SM CLR 12/03 A3015 RMK AO2 T01210034 10219 20116 402220057 EGCN 200550Z 00000KT 3500 BR NSC 04/04 Q1033 EGHQ 200550Z 03001KT CAVOK 14/07 Q1031 EGOM 200550Z AUTO 11001KT 9999 NCD 09/04 Q1031 EGOP 200550Z AUTO 08005KT 9999 // FEW110/// 10/08 Q1031 EGPI 200550Z AUTO 03003KT 0650 FG OVC002/// 09/09 Q1031 EGUW 200550Z AUTO 02010KT 5000 BR NCD 07/06 Q1031 EGVO 200550Z AUTO 24003KT 5000 HZ NCD 07/06 Q1030 EGVP 200550Z AUTO 02004KT 9999 // NCD 09/06 Q1030 EGXE 200550Z AUTO 22001KT 7000 HZ NCD 04/03 Q1032 EGXP 200550Z AUTO 33006KT 0400 // SCT001/// 04/04 Q1032 EGXS 200550Z AUTO 29005KT 0100 // VV/// 05/05 Q1032 EGXU 200550Z AUTO 16002KT 6000 // NCD 04/03 Q1032 EGXV 200550Z AUTO 26002KT 5000 BR NCD 02/02 Q1032 EGXW 200550Z 31007KT 0050 FG VV/// 04/04 Q1032 RED EGXZ 200550Z AUTO 02002KT 9999 NCD 03/02 Q1033 EGYM 200550Z AUTO 01002KT 1800 NCD 05/05 Q1031 EGTK 200550Z 02003KT 4900 BR NSC 05/03 Q1031